Time;durP1;ratioP1;P1;durP2;ratioP2;P2;SDS_P1;SDS_P2;PMS_P1;PMS_P2;Temp;Humidity;BMP_temperature;BMP_pressure;BME280_temperature;BME280_humidity;BME280_pressure;Samples;Min_cycle;Max_cycle;Signal;HPM_P1;HPM_P2
2021/11/30 00:01:20;;;;;;;33.58;10.25;;;;;;;3.65;81.81;100879.38;5038052;28;20052;-67
2021/11/30 00:03:47;;;;;;;24.88;10.32;;;;;;;3.64;81.61;100880.34;5052797;28;20053;-67
2021/11/30 00:06:14;;;;;;;23.27;10.25;;;;;;;3.72;80.86;100878.03;5053276;28;20033;-66
2021/11/30 00:08:41;;;;;;;28.75;10.63;;;;;;;3.67;81.20;100874.88;5053259;28;20045;-67
2021/11/30 00:11:11;;;;;;;23.98;11.07;;;;;;;3.55;81.55;100876.56;5054425;28;20421;-67
2021/11/30 00:13:40;;;;;;;25.10;10.80;;;;;;;3.71;80.66;100872.88;5054310;28;20482;-67
2021/11/30 00:16:08;;;;;;;24.48;10.65;;;;;;;3.64;80.72;100873.31;5054408;28;20513;-67
2021/11/30 00:18:35;;;;;;;26.58;12.43;;;;;;;3.61;81.10;100872.69;5054240;28;20044;-68
2021/11/30 00:21:07;;;;;;;20.83;10.57;;;;;;;3.63;80.75;100863.75;5054331;28;20041;-67
2021/11/30 00:23:35;;;;;;;24.00;12.40;;;;;;;3.63;80.70;100863.75;5054547;28;20405;-67
2021/11/30 00:26:04;;;;;;;28.70;12.50;;;;;;;3.59;80.39;100857.03;5036737;28;20048;-67
2021/11/30 00:28:32;;;;;;;29.25;13.82;;;;;;;3.51;80.94;100869.88;5053081;28;20052;-67
2021/11/30 00:30:59;;;;;;;29.58;12.73;;;;;;;3.34;80.77;100865.75;5051211;28;20110;-67
2021/11/30 00:33:26;;;;;;;26.90;13.00;;;;;;;3.51;80.52;100871.63;5019792;28;20041;-67
2021/11/30 00:35:52;;;;;;;26.15;11.52;;;;;;;3.41;80.41;100860.94;5059936;28;20044;-67
2021/11/30 00:38:19;;;;;;;33.38;12.10;;;;;;;3.51;80.22;100869.00;5072837;28;20037;-67
2021/11/30 00:40:47;;;;;;;29.25;12.20;;;;;;;3.47;80.45;100871.00;5073635;28;20094;-67
2021/11/30 00:43:23;;;;;;;32.75;13.85;;;;;;;3.49;80.55;100876.13;5072760;28;20043;-67
2021/11/30 00:45:55;;;;;;;26.55;11.63;;;;;;;3.41;79.92;100877.50;5069248;28;20040;-67
2021/11/30 00:48:23;;;;;;;29.05;11.32;;;;;;;3.54;79.66;100887.16;5053788;28;20037;-67
2021/11/30 00:50:52;;;;;;;28.17;11.70;;;;;;;3.55;79.61;100880.97;5063073;28;20040;-67
2021/11/30 00:53:20;;;;;;;29.23;11.95;;;;;;;3.51;79.80;100879.50;5057535;28;20124;-67
2021/11/30 00:55:47;;;;;;;24.42;11.63;;;;;;;3.45;79.43;100870.25;5035997;28;20045;-67
2021/11/30 00:58:14;;;;;;;26.70;11.52;;;;;;;3.43;79.47;100870.38;5052521;28;20525;-67
2021/11/30 01:00:41;;;;;;;28.80;11.93;;;;;;;3.36;79.65;100861.22;5069117;28;20465;-67
2021/11/30 01:03:08;;;;;;;30.25;12.18;;;;;;;3.38;79.96;100864.59;5052110;28;20037;-67
2021/11/30 01:05:35;;;;;;;34.28;13.70;;;;;;;3.25;80.10;100851.47;5052071;28;20033;-67
2021/11/30 01:08:03;;;;;;;28.95;12.82;;;;;;;3.25;80.59;100856.72;5019823;28;20051;-67
2021/11/30 01:10:31;;;;;;;31.55;12.20;;;;;;;3.43;79.98;100852.00;5040871;28;20555;-67
2021/11/30 01:12:59;;;;;;;30.67;12.35;;;;;;;3.44;79.78;100843.19;5073489;28;20052;-67
2021/11/30 01:15:26;;;;;;;31.35;12.35;;;;;;;3.58;78.70;100833.53;5073298;28;20044;-67
2021/11/30 01:17:53;;;;;;;29.15;11.38;;;;;;;3.44;79.43;100834.50;5055470;28;20413;-67
2021/11/30 01:20:20;;;;;;;30.38;10.73;;;;;;;3.57;78.08;100839.75;5071498;28;20490;-67
2021/11/30 01:22:47;;;;;;;26.85;11.20;;;;;;;3.44;79.08;100824.00;5072100;28;20033;-67
2021/11/30 01:25:14;;;;;;;29.67;11.70;;;;;;;3.43;78.31;100820.53;5072927;28;20048;-67
2021/11/30 01:27:41;;;;;;;31.30;10.88;;;;;;;3.37;78.83;100826.22;5072907;28;20128;-67
2021/11/30 01:30:09;;;;;;;27.27;10.57;;;;;;;3.51;78.03;100829.66;5072259;28;20397;-68
2021/11/30 01:32:36;;;;;;;34.85;11.68;;;;;;;3.52;78.38;100823.47;5072294;28;20074;-67
2021/11/30 01:35:03;;;;;;;34.67;12.38;;;;;;;3.63;76.65;100819.16;5069125;28;20040;-67
2021/11/30 01:37:32;;;;;;;28.38;10.10;;;;;;;3.57;76.19;100819.59;5070717;28;20041;-67
2021/11/30 01:39:58;;;;;;;30.83;8.02;;;;;;;3.53;75.71;100810.25;5072990;28;20044;-67
2021/11/30 01:42:25;;;;;;;30.80;9.45;;;;;;;3.53;76.54;100799.78;5038950;28;20045;-67
2021/11/30 01:45:01;;;;;;;26.48;10.10;;;;;;;3.43;76.93;100801.34;5071622;28;20055;-67
2021/11/30 01:50:03;;;;;;;26.83;8.77;;;;;;;3.39;75.55;100820.88;5072600;28;20051;-67
2021/11/30 01:52:30;;;;;;;28.92;9.15;;;;;;;3.56;74.01;100817.06;5072772;28;20067;-67
2021/11/30 01:54:57;;;;;;;23.73;8.30;;;;;;;3.63;74.04;100808.66;5072585;28;20053;-67
2021/11/30 01:57:26;;;;;;;25.40;8.27;;;;;;;3.57;74.82;100800.41;5038569;28;20051;-67
2021/11/30 01:59:54;;;;;;;25.30;8.32;;;;;;;3.63;73.58;100790.28;5071635;28;20053;-67
2021/11/30 02:02:21;;;;;;;28.33;7.85;;;;;;;3.59;75.16;100794.06;5072397;28;20245;-67
2021/11/30 02:04:48;;;;;;;20.30;7.75;;;;;;;3.61;73.68;100783.47;5054296;28;20044;-67
2021/11/30 02:07:15;;;;;;;28.10;8.05;;;;;;;3.60;73.74;100779.16;5070427;28;20051;-67
2021/11/30 02:09:44;;;;;;;21.33;7.55;;;;;;;3.51;74.74;100772.81;5072673;28;20052;-67
2021/11/30 02:12:12;;;;;;;20.10;7.53;;;;;;;3.56;74.34;100767.22;5071294;28;20424;-67
2021/11/30 02:14:41;;;;;;;24.75;8.15;;;;;;;3.54;74.29;100766.50;5054404;28;20045;-67
2021/11/30 02:17:09;;;;;;;26.08;7.57;;;;;;;3.60;75.59;100764.28;5070897;28;20125;-67
2021/11/30 02:19:43;;;;;;;17.88;6.75;;;;;;;3.80;74.24;100755.00;5071234;28;20047;-67
2021/11/30 02:22:13;;;;;;;14.40;6.47;;;;;;;3.75;74.94;100741.38;5072378;28;20045;-67
2021/11/30 02:24:41;;;;;;;22.08;7.35;;;;;;;3.74;75.51;100749.34;5071446;28;20068;-67
2021/11/30 02:27:08;;;;;;;16.90;6.75;;;;;;;3.62;75.92;100741.41;5072461;28;20519;-67
2021/11/30 02:29:36;;;;;;;17.83;6.10;;;;;;;3.80;75.49;100736.63;5071066;28;20064;-67
2021/11/30 02:32:03;;;;;;;18.98;6.25;;;;;;;3.74;75.50;100731.81;5054792;28;20048;-67
2021/11/30 02:34:30;;;;;;;17.63;6.97;;;;;;;3.70;76.27;100727.72;5075784;28;20032;-67
2021/11/30 02:37:05;;;;;;;14.82;5.07;;;;;;;3.54;77.23;100721.91;5073351;28;20041;-67
2021/11/30 02:39:34;;;;;;;17.02;6.68;;;;;;;3.53;78.23;100714.97;5058769;28;20465;-67
2021/11/30 02:42:05;;;;;;;18.42;5.43;;;;;;;3.51;79.46;100717.72;5058404;28;20040;-67
2021/11/30 02:44:34;;;;;;;13.52;5.82;;;;;;;3.43;80.37;100699.06;5075223;28;20040;-67
2021/11/30 02:47:04;;;;;;;15.68;5.82;;;;;;;3.39;80.35;100687.13;5076237;28;20099;-67
2021/11/30 02:49:33;;;;;;;19.63;5.88;;;;;;;3.41;80.41;100682.59;5074872;28;20462;-67
2021/11/30 02:52:06;;;;;;;19.83;5.88;;;;;;;3.32;82.10;100675.38;5072879;28;20496;-67
2021/11/30 02:54:36;;;;;;;15.45;5.32;;;;;;;3.11;82.34;100673.34;5078998;28;20115;-67
2021/11/30 02:57:06;;;;;;;12.25;5.03;;;;;;;3.19;82.43;100672.78;5078593;28;20400;-66
2021/11/30 02:59:35;;;;;;;15.02;5.55;;;;;;;3.18;82.27;100668.47;5095103;28;20117;-67
2021/11/30 03:02:11;;;;;;;17.85;5.85;;;;;;;3.12;83.67;100655.81;5054875;28;20036;-67
2021/11/30 03:04:38;;;;;;;16.35;5.38;;;;;;;3.11;83.27;100646.28;5060469;28;20102;-67
2021/11/30 03:07:11;;;;;;;15.38;5.80;;;;;;;3.11;84.04;100643.66;5075542;28;20114;-67
2021/11/30 03:09:39;;;;;;;15.65;5.65;;;;;;;3.04;85.44;100638.03;5075578;28;20070;-67
2021/11/30 03:12:07;;;;;;;15.07;4.88;;;;;;;2.96;85.10;100625.44;5074380;28;20106;-67
2021/11/30 03:14:34;;;;;;;17.33;6.00;;;;;;;3.02;85.64;100622.41;5057763;28;20439;-67
2021/11/30 03:17:02;;;;;;;21.85;5.80;;;;;;;3.01;84.53;100618.09;5057954;28;20044;-67
2021/11/30 03:19:31;;;;;;;17.20;5.40;;;;;;;3.04;85.32;100609.19;5058184;28;20075;-67
2021/11/30 03:21:59;;;;;;;15.32;4.68;;;;;;;2.94;84.82;100595.88;5075427;28;20413;-67
2021/11/30 03:24:26;;;;;;;16.08;5.72;;;;;;;2.85;85.89;100592.13;5057540;28;20520;-67
2021/11/30 03:26:53;;;;;;;11.43;5.30;;;;;;;2.85;86.85;100592.13;5075443;28;20098;-67
2021/11/30 03:29:21;;;;;;;13.38;5.93;;;;;;;2.81;86.43;100582.81;5075332;28;20067;-66
2021/11/30 03:31:51;;;;;;;12.05;5.30;;;;;;;2.90;86.50;100578.72;5074232;28;20042;-67
2021/11/30 03:34:22;;;;;;;20.08;5.78;;;;;;;2.83;86.82;100574.84;5072148;28;20041;-67
2021/11/30 03:36:51;;;;;;;14.13;5.43;;;;;;;2.94;86.85;100572.28;5075138;28;20452;-66
2021/11/30 03:39:21;;;;;;;12.65;5.55;;;;;;;2.95;87.75;100566.13;5075189;28;20048;-67
2021/11/30 03:41:49;;;;;;;13.10;5.95;;;;;;;3.02;86.48;100553.41;5075170;28;20044;-67
2021/11/30 03:44:17;;;;;;;13.45;5.72;;;;;;;2.98;87.67;100547.53;5073598;28;20044;-67
2021/11/30 03:46:44;;;;;;;11.27;5.45;;;;;;;3.14;87.29;100546.44;5040722;28;20037;-67
2021/11/30 03:49:13;;;;;;;14.60;6.25;;;;;;;3.11;87.67;100536.19;5075071;28;20106;-67
2021/11/30 03:51:41;;;;;;;17.27;6.25;;;;;;;3.02;88.26;100542.91;5075018;28;20037;-67
2021/11/30 03:54:08;;;;;;;15.75;5.78;;;;;;;3.08;88.29;100532.00;5074754;28;20041;-67
2021/11/30 03:56:37;;;;;;;13.45;5.70;;;;;;;2.96;88.81;100533.72;5074864;28;20512;-67
2021/11/30 03:59:04;;;;;;;12.32;4.90;;;;;;;2.88;89.40;100533.44;5074546;28;20127;-67
2021/11/30 04:01:32;;;;;;;13.07;5.88;;;;;;;2.90;90.28;100523.69;5063801;28;20044;-67
2021/11/30 04:03:59;;;;;;;16.55;6.10;;;;;;;2.97;89.86;100517.06;5053099;28;20132;-67
2021/11/30 04:06:25;;;;;;;16.23;7.15;;;;;;;2.99;91.09;100507.28;5070124;28;20041;-66
2021/11/30 04:08:52;;;;;;;13.68;6.15;;;;;;;3.01;90.00;100512.44;5036847;28;20052;-67
2021/11/30 04:11:21;;;;;;;12.30;5.40;;;;;;;2.97;90.46;100506.56;5054682;28;20068;-67
2021/11/30 04:13:49;;;;;;;16.67;6.47;;;;;;;2.96;91.45;100499.66;5053906;28;20037;-67
2021/11/30 04:16:16;;;;;;;16.17;6.18;;;;;;;3.12;90.86;100501.16;5054654;28;20136;-67
2021/11/30 04:18:43;;;;;;;12.85;5.68;;;;;;;3.07;90.65;100501.50;5054461;28;20075;-67
2021/11/30 04:21:11;;;;;;;15.43;6.85;;;;;;;3.11;91.43;100499.47;5036991;28;20061;-66
2021/11/30 04:23:38;;;;;;;17.85;6.63;;;;;;;3.11;90.84;100491.63;5053069;28;20383;-67
2021/11/30 04:26:04;;;;;;;14.43;6.70;;;;;;;3.17;91.75;100478.09;5036885;28;20064;-67
2021/11/30 04:28:32;;;;;;;14.65;6.35;;;;;;;3.14;91.65;100473.06;5036333;28;20047;-67
2021/11/30 04:30:59;;;;;;;16.25;6.65;;;;;;;3.31;90.66;100469.19;5018853;28;20049;-67
2021/11/30 04:33:27;;;;;;;13.05;6.60;;;;;;;3.28;90.67;100464.19;5054110;28;20048;-67
2021/11/30 04:35:54;;;;;;;13.68;6.45;;;;;;;3.26;90.60;100461.69;5036371;28;20417;-66
2021/11/30 04:38:20;;;;;;;12.38;6.05;;;;;;;3.23;91.26;100462.72;5052879;28;20090;-67
2021/11/30 04:40:47;;;;;;;15.00;6.28;;;;;;;3.27;91.29;100458.09;5037864;28;20044;-67
2021/11/30 04:43:14;;;;;;;11.75;6.15;;;;;;;3.36;91.35;100460.03;5073672;28;20040;-67
2021/11/30 04:45:59;;;;;;;16.70;6.22;;;;;;;3.50;91.51;100450.31;5073833;28;20127;-67
2021/11/30 04:48:26;;;;;;;13.98;5.47;;;;;;;3.50;91.17;100448.50;5073948;28;20040;-68
2021/11/30 04:50:56;;;;;;;14.48;6.45;;;;;;;3.53;91.02;100442.19;5071953;28;20044;-67
2021/11/30 04:53:25;;;;;;;15.77;6.30;;;;;;;3.60;91.25;100441.63;5072702;28;20040;-67
2021/11/30 04:55:52;;;;;;;11.88;5.85;;;;;;;3.56;90.93;100445.41;5072730;28;20052;-67
2021/11/30 04:58:19;;;;;;;12.90;5.95;;;;;;;3.60;91.34;100444.25;5073060;28;20044;-66
2021/11/30 05:00:47;;;;;;;13.55;6.72;;;;;;;3.78;91.32;100428.91;5055933;28;20047;-67
2021/11/30 05:03:15;;;;;;;12.98;6.13;;;;;;;3.81;90.71;100422.56;5053144;28;20041;-67
2021/11/30 05:05:43;;;;;;;14.68;6.82;;;;;;;3.82;90.78;100438.19;5034208;28;20513;-67
2021/11/30 05:08:10;;;;;;;9.35;4.55;;;;;;;3.80;90.95;100420.88;5052323;28;20049;-67
2021/11/30 05:10:36;;;;;;;11.60;6.05;;;;;;;3.88;91.09;100423.75;5035318;28;20041;-67
2021/11/30 05:13:03;;;;;;;11.65;6.13;;;;;;;3.88;90.92;100413.28;5054281;28;20040;-67
2021/11/30 05:15:31;;;;;;;11.40;6.10;;;;;;;3.84;91.46;100417.09;5072950;28;20044;-67
2021/11/30 05:17:58;;;;;;;13.43;6.15;;;;;;;3.88;91.81;100431.63;5073320;28;20041;-67
2021/11/30 05:20:25;;;;;;;12.90;6.43;;;;;;;4.01;91.23;100416.59;5051600;28;20055;-67
2021/11/30 05:22:53;;;;;;;10.27;5.80;;;;;;;3.96;91.57;100413.50;5035738;28;20524;-67
2021/11/30 05:25:23;;;;;;;12.02;6.32;;;;;;;3.98;91.36;100408.13;5052455;28;20063;-67
2021/11/30 05:27:51;;;;;;;11.60;6.57;;;;;;;3.95;91.75;100406.59;5035287;28;20040;-67
2021/11/30 05:30:20;;;;;;;13.65;5.85;;;;;;;3.98;91.55;100421.25;5051174;28;20540;-66
2021/11/30 05:32:49;;;;;;;12.38;6.35;;;;;;;4.04;91.87;100391.91;5071391;28;20094;-67
2021/11/30 05:35:17;;;;;;;16.17;7.72;;;;;;;4.02;91.95;100404.31;5066207;28;20048;-67
2021/11/30 05:37:44;;;;;;;11.00;6.38;;;;;;;4.05;92.00;100406.69;5055306;28;20048;-67
2021/11/30 05:40:11;;;;;;;13.07;6.72;;;;;;;4.04;92.68;100381.41;5055096;28;20059;-68
2021/11/30 05:42:38;;;;;;;11.27;6.13;;;;;;;4.19;91.91;100388.06;5071829;28;20040;-68
2021/11/30 05:45:05;;;;;;;12.43;6.43;;;;;;;4.14;92.88;100386.78;5071793;28;20460;-67
2021/11/30 05:47:32;;;;;;;17.75;7.70;;;;;;;4.18;92.34;100388.19;5071372;28;20044;-68
2021/11/30 05:49:59;;;;;;;13.65;7.25;;;;;;;4.20;92.30;100384.50;5072752;28;20044;-67
2021/11/30 05:52:26;;;;;;;12.05;7.15;;;;;;;4.17;92.96;100392.63;5071608;28;20068;-67
2021/11/30 05:54:53;;;;;;;13.50;7.30;;;;;;;4.30;92.53;100384.59;5072643;28;20442;-66
2021/11/30 05:57:22;;;;;;;16.40;9.00;;;;;;;4.18;92.88;100389.03;5055021;28;20481;-67
2021/11/30 05:59:50;;;;;;;12.32;7.13;;;;;;;4.30;93.10;100391.66;5052716;28;20095;-67
2021/11/30 06:02:20;;;;;;;11.90;6.32;;;;;;;4.33;92.45;100383.50;5034842;28;20128;-68
2021/11/30 06:04:47;;;;;;;12.75;6.60;;;;;;;4.39;92.65;100389.13;5051071;28;20252;-68
2021/11/30 06:07:14;;;;;;;10.95;5.65;;;;;;;4.36;92.66;100385.91;5051287;28;20048;-67
2021/11/30 06:09:41;;;;;;;12.27;6.88;;;;;;;4.33;92.53;100376.47;5052591;28;20409;-67
2021/11/30 06:12:08;;;;;;;11.05;6.20;;;;;;;4.36;92.84;100383.28;5052290;28;20053;-68
2021/11/30 06:14:35;;;;;;;13.25;7.65;;;;;;;4.41;92.76;100375.84;5052190;28;20037;-68
2021/11/30 06:17:02;;;;;;;12.68;7.90;;;;;;;4.38;93.21;100373.47;5052459;28;20401;-68
2021/11/30 06:19:29;;;;;;;10.63;5.65;;;;;;;4.48;92.54;100382.28;5052403;28;20124;-67
2021/11/30 06:21:56;;;;;;;15.70;8.13;;;;;;;4.46;93.19;100375.47;5066732;28;20048;-68
2021/11/30 06:24:24;;;;;;;13.88;7.55;;;;;;;4.56;92.83;100373.78;5072298;28;20037;-68
2021/11/30 06:26:51;;;;;;;15.88;7.97;;;;;;;4.57;92.77;100376.28;5072518;28;20132;-68
2021/11/30 06:29:18;;;;;;;13.57;7.22;;;;;;;4.55;92.82;100380.84;5072084;28;20090;-68
2021/11/30 06:31:45;;;;;;;14.40;8.90;;;;;;;4.52;93.48;100378.44;5071402;28;20131;-68
2021/11/30 06:34:12;;;;;;;13.85;8.15;;;;;;;4.58;93.37;100374.50;5070250;28;20397;-68
2021/11/30 06:36:39;;;;;;;15.25;7.70;;;;;;;4.56;93.59;100382.50;5054597;28;20123;-68
2021/11/30 06:39:06;;;;;;;16.10;8.95;;;;;;;4.65;93.29;100369.59;5070919;28;20507;-67
2021/11/30 06:41:33;;;;;;;17.40;9.40;;;;;;;4.66;93.63;100368.59;5071070;28;20040;-66
2021/11/30 06:44:00;;;;;;;14.38;7.65;;;;;;;4.77;92.92;100368.59;5071934;28;20498;-66
2021/11/30 06:46:27;;;;;;;15.73;8.32;;;;;;;4.72;93.18;100376.00;5070767;28;20040;-67
2021/11/30 06:48:54;;;;;;;13.70;8.02;;;;;;;4.69;94.08;100382.34;5054011;28;20123;-66
2021/11/30 06:51:21;;;;;;;17.30;9.93;;;;;;;4.78;94.19;100372.88;5072466;28;20500;-67
2021/11/30 06:53:48;;;;;;;17.27;9.43;;;;;;;4.71;94.11;100358.56;5058778;28;20078;-67
2021/11/30 06:56:15;;;;;;;16.15;10.00;;;;;;;4.77;94.25;100376.47;5033691;28;20482;-66
2021/11/30 06:58:42;;;;;;;14.90;9.13;;;;;;;4.73;94.32;100372.41;5050866;28;20045;-69
2021/11/30 07:01:10;;;;;;;19.77;9.63;;;;;;;4.79;94.59;100361.41;5034459;28;20128;-68
2021/11/30 07:03:37;;;;;;;21.48;11.20;;;;;;;4.80;94.73;100376.19;5050249;28;20535;-68
2021/11/30 07:06:15;;;;;;;14.68;8.68;;;;;;;4.92;94.35;100367.31;5051894;28;20490;-68
2021/11/30 07:09:15;;;;;;;17.63;10.35;;;;;;;4.93;94.26;100366.38;5050856;28;20076;-67
2021/11/30 07:14:17;;;;;;;19.35;11.63;;;;;;;4.95;94.68;100364.44;5131161;27;20371;-68
2021/11/30 07:16:45;;;;;;;16.67;9.13;;;;;;;5.05;94.56;100356.63;5130985;27;20114;-68
2021/11/30 07:19:12;;;;;;;17.65;10.93;;;;;;;5.10;94.60;100353.63;5130564;27;20446;-68
2021/11/30 07:21:39;;;;;;;18.10;11.32;;;;;;;5.08;94.90;100351.09;5130911;27;20480;-68
2021/11/30 07:24:06;;;;;;;18.27;10.55;;;;;;;5.09;94.70;100344.88;5130900;27;20040;-68
2021/11/30 07:26:34;;;;;;;21.67;10.25;;;;;;;5.17;94.71;100354.78;5127242;27;20047;-68
2021/11/30 07:29:03;;;;;;;17.00;10.13;;;;;;;5.16;94.58;100338.13;5127707;27;20088;-67
2021/11/30 07:31:30;;;;;;;14.73;8.63;;;;;;;5.24;94.35;100345.41;5126909;27;20039;-69
2021/11/30 07:34:00;;;;;;;17.33;10.00;;;;;;;5.30;94.30;100336.16;5122535;27;20028;-69
2021/11/30 07:36:28;;;;;;;17.73;9.63;;;;;;;5.30;94.34;100344.06;5109470;28;20042;-67
2021/11/30 07:38:55;;;;;;;12.75;7.03;;;;;;;5.47;93.62;100342.63;5125412;27;20047;-69
2021/11/30 07:41:23;;;;;;;13.75;7.22;;;;;;;5.48;93.49;100346.94;5125137;27;20072;-67
2021/11/30 07:43:50;;;;;;;14.75;8.35;;;;;;;5.51;93.47;100336.97;5122712;27;20044;-67
2021/11/30 07:46:17;;;;;;;15.63;8.93;;;;;;;5.52;93.73;100332.53;5123375;27;20067;-68
2021/11/30 07:48:44;;;;;;;14.60;8.95;;;;;;;5.57;93.41;100332.97;5124065;27;20487;-68
2021/11/30 07:51:15;;;;;;;16.88;8.93;;;;;;;5.53;93.44;100331.56;5124900;27;20052;-67
2021/11/30 07:53:44;;;;;;;15.75;8.63;;;;;;;5.56;93.47;100345.28;5127555;27;20138;-68
2021/11/30 07:56:11;;;;;;;13.80;8.10;;;;;;;5.71;92.99;100343.16;5124903;27;20118;-68
2021/11/30 07:58:39;;;;;;;16.25;8.75;;;;;;;5.71;92.82;100344.94;5105091;27;20047;-68
2021/11/30 08:01:06;;;;;;;16.58;9.52;;;;;;;5.69;92.58;100342.44;5127320;27;20043;-68
2021/11/30 08:03:33;;;;;;;15.57;9.07;;;;;;;5.71;92.66;100353.69;5122354;27;20377;-68
2021/11/30 08:06:00;;;;;;;16.23;8.95;;;;;;;5.75;92.61;100362.16;5106482;28;20100;-68
2021/11/30 08:08:26;;;;;;;11.00;6.43;;;;;;;5.74;93.02;100357.84;5123846;27;20048;-68
2021/11/30 08:10:53;;;;;;;16.52;9.50;;;;;;;5.80;93.36;100348.56;5139982;27;20047;-65
2021/11/30 08:13:20;;;;;;;15.00;8.75;;;;;;;5.85;92.42;100359.56;5118604;27;20131;-66
2021/11/30 08:15:47;;;;;;;15.27;9.00;;;;;;;5.90;91.98;100341.56;5106542;27;21313;-66
2021/11/30 08:18:14;;;;;;;15.18;8.95;;;;;;;5.85;93.05;100349.84;5126757;27;20463;-66
2021/11/30 08:20:41;;;;;;;13.73;7.03;;;;;;;5.91;92.32;100353.75;5106073;28;20044;-65
2021/11/30 08:23:08;;;;;;;17.35;9.57;;;;;;;5.93;92.40;100349.16;5124376;27;20051;-66
2021/11/30 08:25:35;;;;;;;16.77;9.27;;;;;;;5.91;92.90;100357.22;5113985;27;20039;-66
2021/11/30 08:28:04;;;;;;;15.38;9.27;;;;;;;5.99;92.25;100356.59;5105685;28;20044;-66
2021/11/30 08:30:41;;;;;;;16.73;7.60;;;;;;;5.98;93.40;100354.09;5109551;27;20047;-65
2021/11/30 08:33:08;;;;;;;12.60;6.90;;;;;;;6.11;92.34;100352.88;5106770;27;20043;-66
2021/11/30 08:35:35;;;;;;;11.32;6.45;;;;;;;6.08;92.87;100350.50;5106235;27;20036;-64
2021/11/30 08:38:06;;;;;;;10.88;6.72;;;;;;;6.04;93.06;100354.38;5106276;27;20044;-65
2021/11/30 08:40:33;;;;;;;12.80;7.72;;;;;;;5.96;93.46;100348.94;5104191;27;20047;-68
2021/11/30 08:43:00;;;;;;;11.35;6.28;;;;;;;5.96;93.53;100339.25;5107766;27;20103;-67
2021/11/30 08:45:27;;;;;;;10.85;6.40;;;;;;;5.94;94.36;100356.13;5103048;27;20569;-67
2021/11/30 08:47:54;;;;;;;10.23;5.05;;;;;;;5.91;94.01;100349.31;5106817;27;20101;-65
2021/11/30 08:50:22;;;;;;;13.75;7.47;;;;;;;5.99;94.69;100347.88;5095428;27;20130;-67
2021/11/30 08:52:49;;;;;;;12.20;7.30;;;;;;;5.99;94.27;100353.94;5105005;28;20501;-67
2021/11/30 08:55:16;;;;;;;10.80;5.97;;;;;;;5.99;94.39;100358.41;5105605;28;20043;-67
2021/11/30 08:57:43;;;;;;;14.35;7.30;;;;;;;6.04;94.39;100341.22;5100963;27;20059;-67
2021/11/30 09:00:17;;;;;;;10.65;5.05;;;;;;;6.09;94.14;100343.44;5100894;27;20058;-66
2021/11/30 09:02:45;;;;;;;12.63;6.47;;;;;;;6.04;94.62;100337.72;5102918;27;20082;-68
2021/11/30 09:05:13;;;;;;;12.73;5.53;;;;;;;6.07;94.37;100330.41;5103204;27;20492;-68
2021/11/30 09:07:39;;;;;;;13.70;6.80;;;;;;;6.18;94.24;100326.00;5106184;27;20035;-66
2021/11/30 09:10:07;;;;;;;11.50;6.72;;;;;;;6.12;94.83;100335.28;5104299;27;20079;-66
2021/11/30 09:12:34;;;;;;;11.13;6.05;;;;;;;6.13;94.61;100336.94;5117123;27;20059;-66
2021/11/30 09:15:03;;;;;;;13.40;7.10;;;;;;;6.18;94.37;100332.09;5107935;27;20040;-66
2021/11/30 09:17:48;;;;;;;11.15;6.32;;;;;;;6.25;94.20;100329.75;5110020;27;20104;-67
2021/11/30 09:20:15;;;;;;;11.70;6.15;;;;;;;6.25;94.20;100335.03;5104620;28;20831;-68
2021/11/30 09:22:42;;;;;;;11.57;5.97;;;;;;;6.24;94.00;100331.56;5107774;27;20491;-68
2021/11/30 09:25:10;;;;;;;14.23;6.47;;;;;;;6.31;94.38;100345.00;5112140;27;20051;-68
2021/11/30 09:27:38;;;;;;;12.48;5.85;;;;;;;6.34;94.19;100331.56;5112730;27;20077;-68
2021/11/30 09:30:08;;;;;;;12.27;7.05;;;;;;;6.40;94.57;100327.56;5106168;27;20377;-68
2021/11/30 09:32:35;;;;;;;11.80;6.75;;;;;;;6.51;93.78;100316.88;5105400;27;20059;-69
2021/11/30 09:35:03;;;;;;;21.58;7.32;;;;;;;6.49;93.85;100340.75;5101648;27;20044;-68
2021/11/30 09:37:30;;;;;;;13.07;5.82;;;;;;;6.50;93.40;100325.78;5104373;28;20076;-68
2021/11/30 09:39:59;;;;;;;7.55;4.07;;;;;;;6.56;92.84;100329.66;5102750;27;22067;-68
2021/11/30 09:42:27;;;;;;;10.73;6.47;;;;;;;6.55;93.73;100315.66;5112558;27;20063;-68
2021/11/30 09:44:54;;;;;;;10.93;6.13;;;;;;;6.58;93.41;100327.72;5103781;27;20058;-66
2021/11/30 09:47:22;;;;;;;12.63;7.10;;;;;;;6.51;94.36;100315.09;5107530;27;20098;-68
2021/11/30 09:49:49;;;;;;;13.38;6.80;;;;;;;6.69;94.03;100302.06;5106810;27;20600;-68
2021/11/30 09:52:16;;;;;;;13.30;7.00;;;;;;;6.72;93.64;100308.84;5107273;28;20434;-68
2021/11/30 09:54:43;;;;;;;10.50;5.85;;;;;;;6.73;93.08;100303.44;5103047;27;20369;-69
2021/11/30 09:57:10;;;;;;;10.35;5.80;;;;;;;6.72;93.04;100298.31;5110852;27;20039;-67
2021/11/30 09:59:37;;;;;;;10.52;6.03;;;;;;;6.81;93.25;100301.91;5101142;27;20044;-67
2021/11/30 10:02:04;;;;;;;11.57;6.20;;;;;;;6.81;93.05;100299.28;5099397;28;20040;-67
2021/11/30 10:04:31;;;;;;;10.75;5.97;;;;;;;6.82;93.15;100307.03;5102955;27;20048;-68
2021/11/30 10:06:57;;;;;;;9.90;6.00;;;;;;;6.88;92.61;100305.66;5101958;27;20169;-67
2021/11/30 10:09:25;;;;;;;10.02;5.65;;;;;;;6.90;92.90;100304.53;5098625;28;20489;-67
2021/11/30 10:11:58;;;;;;;7.47;3.83;;;;;;;6.87;93.29;100317.16;5098306;28;20040;-66
2021/11/30 10:14:36;;;;;;;11.05;4.57;;;;;;;6.95;92.75;100309.38;5105586;27;20094;-65
2021/11/30 10:17:19;;;;;;;11.13;5.72;;;;;;;6.97;93.01;100302.16;5110882;27;20507;-65
2021/11/30 10:20:01;;;;;;;10.35;5.70;;;;;;;7.00;93.18;100320.31;5103313;28;20065;-66
2021/11/30 10:22:40;;;;;;;11.65;5.45;;;;;;;7.02;93.65;100292.03;5099652;27;20057;-65
2021/11/30 10:25:26;;;;;;;9.05;5.38;;;;;;;7.06;93.48;100314.50;5094672;27;20039;-67
2021/11/30 10:27:58;;;;;;;9.48;5.32;;;;;;;7.10;93.63;100323.78;5103307;28;20032;-67
2021/11/30 10:30:26;;;;;;;;;;;;;;;7.09;93.78;100316.00;5104331;28;20036;-67
2021/11/30 10:32:55;;;;;;;14.10;5.43;;;;;;;7.05;94.76;100312.00;5099709;27;20386;-67
2021/11/30 10:35:26;;;;;;;11.52;5.63;;;;;;;7.04;94.59;100315.59;5112964;27;20043;-67
2021/11/30 10:37:56;;;;;;;10.70;5.70;;;;;;;7.18;94.84;100314.34;5096926;27;20073;-67
2021/11/30 10:40:26;;;;;;;9.70;4.78;;;;;;;7.07;95.37;100307.41;5121466;27;20039;-66
2021/11/30 10:42:57;;;;;;;10.47;5.83;;;;;;;7.11;95.02;100307.00;5105706;28;20112;-67
2021/11/30 10:45:30;;;;;;;9.80;5.35;;;;;;;7.07;95.48;100313.50;5099841;27;20292;-68
2021/11/30 10:48:19;;;;;;;10.13;5.30;;;;;;;7.19;95.04;100303.63;5107172;28;20051;-67
2021/11/30 10:50:50;;;;;;;9.95;5.38;;;;;;;7.24;95.18;100308.47;5105163;27;20489;-67
2021/11/30 10:53:35;;;;;;;9.32;5.35;;;;;;;7.28;94.46;100307.22;5114065;27;20138;-66
2021/11/30 10:56:04;;;;;;;9.60;5.68;;;;;;;7.28;95.21;100308.06;5101435;27;20050;-67
2021/11/30 10:58:35;;;;;;;8.05;4.40;;;;;;;7.28;94.97;100299.31;5098001;28;20040;-67
2021/11/30 11:01:20;;;;;;;7.20;3.83;;;;;;;7.28;94.71;100312.50;5101727;28;20084;-66
2021/11/30 11:04:08;;;;;;;9.55;4.90;;;;;;;7.28;95.70;100301.97;5106948;27;20036;-66
2021/11/30 11:06:36;;;;;;;8.15;4.07;;;;;;;7.31;95.66;100304.28;5098697;28;20127;-67
2021/11/30 11:09:07;;;;;;;7.15;3.63;;;;;;;7.28;95.67;100310.69;5112433;28;20040;-66
2021/11/30 11:11:36;;;;;;;11.88;5.28;;;;;;;7.29;95.39;100312.38;5103665;28;20036;-67
2021/11/30 11:14:05;;;;;;;9.98;4.72;;;;;;;7.42;95.72;100306.78;5093630;28;20094;-66
2021/11/30 11:16:35;;;;;;;7.95;4.63;;;;;;;7.38;95.70;100304.56;5100900;28;20047;-66
2021/11/30 11:19:07;;;;;;;12.73;4.77;;;;;;;7.38;95.93;100307.19;5091982;28;20453;-66
2021/11/30 11:21:38;;;;;;;10.30;5.65;;;;;;;7.38;96.09;100315.94;5104261;28;20396;-66
2021/11/30 11:24:13;;;;;;;9.13;4.22;;;;;;;7.39;95.60;100311.50;5115555;27;20032;-67
2021/11/30 11:26:50;;;;;;;8.23;4.38;;;;;;;7.46;95.51;100312.59;5091880;28;20453;-66
2021/11/30 11:29:27;;;;;;;8.68;4.75;;;;;;;7.39;95.96;100311.50;5123276;27;20044;-66
2021/11/30 11:31:57;;;;;;;10.30;5.05;;;;;;;7.43;95.61;100308.44;5092026;28;20043;-66
2021/11/30 11:34:27;;;;;;;9.40;5.03;;;;;;;7.45;96.11;100308.28;5118535;27;20031;-67
2021/11/30 11:36:56;;;;;;;9.55;4.75;;;;;;;7.53;95.83;100312.84;5103987;28;20047;-66